createdAt,value
2022-11-10T00:00:34.455Z,3.93
2022-11-10T00:03:04.927Z,4.10
2022-11-10T00:05:31.773Z,3.93
2022-11-10T00:07:58.218Z,4.00
2022-11-10T00:10:24.701Z,4.40
2022-11-10T00:12:52.297Z,4.00
2022-11-10T00:15:37.366Z,4.20
2022-11-10T00:18:03.941Z,4.27
2022-11-10T00:20:30.193Z,4.40
2022-11-10T00:22:56.568Z,4.30
2022-11-10T00:25:23.194Z,4.30
2022-11-10T00:27:49.420Z,4.30
2022-11-10T00:30:15.632Z,4.30
2022-11-10T00:32:41.840Z,4.37
2022-11-10T00:35:08.264Z,4.30
2022-11-10T00:37:34.528Z,4.30
2022-11-10T00:40:00.757Z,4.20
2022-11-10T00:42:27.027Z,4.13
2022-11-10T00:44:53.304Z,4.20
2022-11-10T00:47:19.522Z,4.40
2022-11-10T00:49:45.772Z,4.50
2022-11-10T00:52:11.956Z,4.40
2022-11-10T00:54:38.184Z,4.33
2022-11-10T00:57:04.397Z,4.30
2022-11-10T00:59:30.608Z,4.40
2022-11-10T01:01:56.796Z,4.30
2022-11-10T01:04:23.001Z,4.23
2022-11-10T01:06:49.376Z,4.33
2022-11-10T01:09:15.627Z,4.40
2022-11-10T01:11:41.903Z,4.40
2022-11-10T01:14:08.239Z,4.60
2022-11-10T01:16:34.458Z,4.30
2022-11-10T01:19:02.094Z,4.40
2022-11-10T01:21:28.720Z,4.17
2022-11-10T01:23:55.583Z,4.50
2022-11-10T01:26:22.280Z,4.50
2022-11-10T01:28:48.869Z,4.40
2022-11-10T01:31:16.481Z,4.30
2022-11-10T01:33:42.760Z,4.47
2022-11-10T01:36:09.944Z,4.43
2022-11-10T01:38:37.112Z,4.50
2022-11-10T01:41:04.219Z,4.30
2022-11-10T01:43:30.861Z,4.40
2022-11-10T01:46:04.480Z,4.50
2022-11-10T01:48:36.367Z,4.47
2022-11-10T01:51:05.968Z,4.57
2022-11-10T01:53:34.285Z,4.70
2022-11-10T01:56:02.042Z,4.67
2022-11-10T01:58:31.882Z,4.50
2022-11-10T02:00:58.175Z,4.60
2022-11-10T02:03:29.348Z,4.60
2022-11-10T02:05:55.877Z,5.20
2022-11-10T02:08:23.251Z,4.40
2022-11-10T02:10:49.463Z,4.70
2022-11-10T02:13:15.709Z,4.67
2022-11-10T02:15:42.345Z,4.83
2022-11-10T02:18:08.889Z,4.60
2022-11-10T02:20:35.206Z,4.70
2022-11-10T02:23:20.581Z,4.60
2022-11-10T02:25:47.013Z,4.70
2022-11-10T02:28:13.234Z,4.47
2022-11-10T02:30:39.427Z,4.50
2022-11-10T02:33:05.710Z,4.50
2022-11-10T02:35:31.998Z,4.50
2022-11-10T02:37:58.209Z,4.70
2022-11-10T02:40:24.410Z,4.60
2022-11-10T02:42:50.648Z,4.60
2022-11-10T02:45:16.954Z,4.70
2022-11-10T02:47:43.186Z,4.30
2022-11-10T02:50:09.510Z,4.60
2022-11-10T02:52:35.690Z,4.67
2022-11-10T02:55:01.901Z,4.77
2022-11-10T02:57:28.141Z,4.63
2022-11-10T02:59:54.353Z,4.70
2022-11-10T03:02:20.549Z,4.60
2022-11-10T03:04:46.923Z,4.60
2022-11-10T03:07:13.231Z,4.90
2022-11-10T03:09:39.488Z,5.10
2022-11-10T03:12:05.804Z,4.70
2022-11-10T03:14:32.024Z,4.60
2022-11-10T03:16:58.233Z,4.70
2022-11-10T03:19:24.488Z,4.77
2022-11-10T03:21:50.688Z,4.70
2022-11-10T03:24:16.948Z,4.70
2022-11-10T03:26:43.162Z,4.90
2022-11-10T03:29:09.368Z,4.70
2022-11-10T03:31:35.610Z,4.90
2022-11-10T03:34:01.861Z,4.80
2022-11-10T03:36:28.063Z,4.70
2022-11-10T03:38:54.262Z,4.60
2022-11-10T03:41:21.047Z,4.60
2022-11-10T03:43:47.872Z,4.70
2022-11-10T03:46:14.168Z,4.60
2022-11-10T03:48:40.454Z,4.70
2022-11-10T03:51:06.906Z,4.60
2022-11-10T03:53:33.128Z,4.80
2022-11-10T03:56:03.087Z,4.80
2022-11-10T03:58:29.314Z,4.80
2022-11-10T04:00:55.892Z,4.80
2022-11-10T04:03:22.563Z,4.63
2022-11-10T04:06:07.845Z,4.80
2022-11-10T04:08:52.588Z,4.90
2022-11-10T04:11:38.804Z,4.50
2022-11-10T04:14:23.890Z,4.70
2022-11-10T04:16:50.087Z,4.90
2022-11-10T04:19:16.307Z,5.03
2022-11-10T04:21:42.547Z,5.27
2022-11-10T04:24:08.786Z,4.90
2022-11-10T04:26:38.521Z,4.97
2022-11-10T04:29:06.900Z,4.93
2022-11-10T04:31:34.069Z,4.90
2022-11-10T04:34:00.291Z,4.90
2022-11-10T04:36:31.086Z,4.90
2022-11-10T04:38:57.298Z,5.10
2022-11-10T04:41:24.265Z,4.90
2022-11-10T04:43:50.855Z,5.17
2022-11-10T04:46:22.023Z,4.90
2022-11-10T04:48:48.559Z,5.00
2022-11-10T04:51:15.579Z,5.13
2022-11-10T04:53:41.824Z,4.90
2022-11-10T04:56:09.629Z,4.90
2022-11-10T04:58:35.937Z,4.53
2022-11-10T05:01:02.255Z,4.83
2022-11-10T05:03:28.540Z,5.00
2022-11-10T05:05:54.762Z,4.80
2022-11-10T05:08:21.002Z,5.00
2022-11-10T05:10:47.242Z,4.90
2022-11-10T05:13:13.495Z,5.00
2022-11-10T05:15:42.011Z,5.00
2022-11-10T05:18:08.380Z,5.00
2022-11-10T05:20:34.610Z,5.10
2022-11-10T05:23:20.000Z,5.00
2022-11-10T05:25:46.422Z,4.87
2022-11-10T05:28:13.248Z,4.80
2022-11-10T05:30:39.915Z,4.90
2022-11-10T05:33:06.702Z,5.00
2022-11-10T05:35:33.163Z,4.83
2022-11-10T05:37:59.370Z,4.93
2022-11-10T05:40:25.807Z,4.80
2022-11-10T05:42:55.056Z,4.90
2022-11-10T05:45:22.231Z,4.80
2022-11-10T05:47:48.741Z,5.03
2022-11-10T05:50:15.396Z,4.93
2022-11-10T05:52:46.246Z,4.80
2022-11-10T05:55:15.937Z,5.17
2022-11-10T05:57:46.212Z,5.10
2022-11-10T06:00:13.165Z,5.10
2022-11-10T06:02:39.387Z,4.90
2022-11-10T06:05:06.344Z,5.10
2022-11-10T06:07:32.736Z,4.97
2022-11-10T06:09:58.957Z,5.10
2022-11-10T06:12:25.192Z,5.17
2022-11-10T06:14:51.905Z,5.00
2022-11-10T06:17:18.354Z,5.00
2022-11-10T06:19:44.630Z,5.20
2022-11-10T06:22:10.894Z,5.03
2022-11-10T06:24:37.083Z,4.97
2022-11-10T06:27:03.334Z,4.80
2022-11-10T06:29:29.587Z,4.97
2022-11-10T06:31:55.777Z,5.30
2022-11-10T06:34:21.999Z,5.30
2022-11-10T06:36:48.218Z,4.97
2022-11-10T06:39:14.448Z,5.57
2022-11-10T06:41:40.674Z,5.30
2022-11-10T06:44:06.933Z,5.00
2022-11-10T06:46:34.970Z,5.30
2022-11-10T06:49:04.638Z,5.20
2022-11-10T06:51:30.857Z,5.30
2022-11-10T06:53:57.071Z,5.27
2022-11-10T06:56:23.369Z,5.23
2022-11-10T06:58:49.704Z,5.50
2022-11-10T07:01:21.253Z,5.40
2022-11-10T07:04:17.592Z,5.10
2022-11-10T07:06:34.896Z,5.30
2022-11-10T07:09:01.186Z,5.23
2022-11-10T07:11:27.463Z,5.30
2022-11-10T07:13:53.698Z,5.33
2022-11-10T07:16:24.296Z,5.17
2022-11-10T07:18:50.847Z,5.20
2022-11-10T07:21:17.053Z,5.27
2022-11-10T07:23:43.260Z,5.40
2022-11-10T07:26:09.480Z,6.23
2022-11-10T07:28:35.781Z,5.30
2022-11-10T07:31:02.848Z,5.30
2022-11-10T07:33:29.068Z,5.10
2022-11-10T07:35:56.800Z,5.00
2022-11-10T07:38:23.055Z,5.13
2022-11-10T07:40:53.085Z,5.03
2022-11-10T07:43:20.457Z,5.17
2022-11-10T07:45:47.129Z,5.20
2022-11-10T07:48:13.410Z,5.13
2022-11-10T07:50:39.963Z,5.20
2022-11-10T07:53:07.702Z,5.13
2022-11-10T07:55:34.384Z,5.10
2022-11-10T07:58:00.836Z,5.30
2022-11-10T08:00:27.103Z,5.20
2022-11-10T08:02:53.425Z,5.10
2022-11-10T08:05:19.634Z,5.10
2022-11-10T08:07:45.968Z,5.03
2022-11-10T08:10:12.276Z,4.90
2022-11-10T08:12:38.557Z,5.10
2022-11-10T08:15:05.100Z,5.00
2022-11-10T08:17:31.333Z,5.00
2022-11-10T08:19:57.591Z,4.90
2022-11-10T08:22:23.828Z,4.83
2022-11-10T08:24:50.274Z,4.80
2022-11-10T08:27:16.526Z,4.70
2022-11-10T08:29:42.875Z,4.70
2022-11-10T08:32:09.173Z,4.87
2022-11-10T08:34:35.409Z,4.80
2022-11-10T08:37:01.636Z,4.77
2022-11-10T08:39:38.695Z,4.57
2022-11-10T08:42:06.302Z,4.80
2022-11-10T08:44:32.752Z,4.83
2022-11-10T08:46:59.052Z,4.67
2022-11-10T08:49:25.463Z,4.50
2022-11-10T08:51:51.795Z,4.80
2022-11-10T08:54:18.050Z,4.50
2022-11-10T08:56:44.343Z,4.50
2022-11-10T08:59:10.638Z,4.60
2022-11-10T09:01:36.860Z,4.60
2022-11-10T09:04:03.103Z,4.50
2022-11-10T09:06:29.307Z,4.60
2022-11-10T09:08:55.553Z,4.30
2022-11-10T09:11:21.844Z,4.40
2022-11-10T09:13:48.085Z,4.60
2022-11-10T09:16:14.471Z,4.37
2022-11-10T09:18:40.699Z,4.30
2022-11-10T09:21:11.676Z,4.40
2022-11-10T09:23:37.953Z,4.30
2022-11-10T09:26:07.541Z,4.20
2022-11-10T09:28:33.841Z,4.30
2022-11-10T09:31:00.054Z,4.20
2022-11-10T09:33:26.515Z,4.30
2022-11-10T09:35:59.696Z,4.33
2022-11-10T09:38:26.117Z,4.20
2022-11-10T09:40:55.400Z,4.33
2022-11-10T09:43:25.709Z,4.30
2022-11-10T09:45:55.091Z,4.10
2022-11-10T09:48:24.729Z,4.10
2022-11-10T09:50:53.964Z,4.10
2022-11-10T09:53:22.914Z,4.10
2022-11-10T09:55:49.899Z,4.00
2022-11-10T09:58:16.391Z,3.97
2022-11-10T10:00:46.335Z,3.80
2022-11-10T10:03:19.284Z,4.00
2022-11-10T10:05:51.751Z,4.00
2022-11-10T10:08:44.405Z,4.00
2022-11-10T10:11:22.782Z,3.90
2022-11-10T10:13:55.044Z,3.90
2022-11-10T10:16:37.327Z,3.90
2022-11-10T10:19:22.275Z,3.80
2022-11-10T10:21:54.381Z,3.90
2022-11-10T10:24:22.629Z,3.80
2022-11-10T10:26:50.658Z,3.80
2022-11-10T10:29:19.451Z,3.87
2022-11-10T10:31:47.948Z,3.80
2022-11-10T10:34:18.781Z,3.80
2022-11-10T10:36:45.514Z,3.87
2022-11-10T10:39:17.819Z,3.87
2022-11-10T10:41:45.395Z,3.83
2022-11-10T10:44:13.186Z,3.60
2022-11-10T10:46:49.911Z,3.70
2022-11-10T10:49:29.737Z,3.70
2022-11-10T10:52:06.457Z,3.57
2022-11-10T10:54:33.844Z,3.60
2022-11-10T10:57:01.484Z,3.50
2022-11-10T10:59:27.926Z,3.63
2022-11-10T11:01:55.182Z,3.10
2022-11-10T11:04:29.508Z,3.17
2022-11-10T11:06:59.393Z,2.80
2022-11-10T11:09:27.387Z,2.60
2022-11-10T11:12:04.676Z,2.50
2022-11-10T11:14:31.934Z,2.57
2022-11-10T11:17:17.606Z,2.50
2022-11-10T11:19:43.941Z,2.30
2022-11-10T11:22:19.595Z,2.20
2022-11-10T11:25:02.768Z,2.30
2022-11-10T11:27:48.983Z,2.07
2022-11-10T11:30:17.598Z,2.10
2022-11-10T11:32:59.153Z,2.00
2022-11-10T11:35:44.341Z,2.00
2022-11-10T11:38:15.454Z,2.17
2022-11-10T11:40:46.486Z,3.47
2022-11-10T11:43:24.014Z,2.03
2022-11-10T11:45:50.212Z,2.00
2022-11-10T11:48:24.374Z,1.80
2022-11-10T11:50:59.036Z,2.00
2022-11-10T11:53:38.015Z,2.00
2022-11-10T11:56:22.002Z,2.00
2022-11-10T11:59:10.114Z,2.10
2022-11-10T12:01:48.623Z,1.90
2022-11-10T12:04:14.878Z,2.00
2022-11-10T12:06:44.157Z,1.90
2022-11-10T12:09:18.496Z,1.90
2022-11-10T12:12:10.817Z,1.90
2022-11-10T12:14:37.045Z,1.90
2022-11-10T12:17:26.785Z,2.10
2022-11-10T12:20:05.247Z,2.00
2022-11-10T12:22:31.440Z,2.10
2022-11-10T12:25:01.040Z,2.00
2022-11-10T12:27:30.434Z,1.90
2022-11-10T12:30:01.166Z,2.00
2022-11-10T12:32:37.370Z,1.90
2022-11-10T12:35:07.306Z,1.80
2022-11-10T12:37:33.551Z,1.70
2022-11-10T12:40:02.821Z,1.70
2022-11-10T12:42:29.914Z,1.80
2022-11-10T12:44:56.308Z,1.60
2022-11-10T12:47:25.706Z,1.60
2022-11-10T12:49:59.717Z,1.60
2022-11-10T12:52:35.080Z,1.50
2022-11-10T12:55:01.469Z,1.50
2022-11-10T12:57:28.557Z,1.50
2022-11-10T12:59:56.897Z,1.50
2022-11-10T13:02:28.848Z,1.60
2022-11-10T13:05:13.928Z,1.57
2022-11-10T13:07:45.404Z,1.60
2022-11-10T13:10:18.231Z,1.50
2022-11-10T13:13:06.257Z,1.53
2022-11-10T13:15:35.612Z,1.60
2022-11-10T13:18:02.071Z,1.50
2022-11-10T13:20:48.023Z,1.60
2022-11-10T13:23:24.849Z,1.67
2022-11-10T13:25:53.121Z,1.60
2022-11-10T13:28:42.433Z,1.63
2022-11-10T13:31:27.201Z,1.70
2022-11-10T13:34:02.769Z,1.80
2022-11-10T13:36:45.819Z,1.80
2022-11-10T13:39:24.297Z,2.07
2022-11-10T13:41:56.844Z,3.03
2022-11-10T13:44:24.602Z,2.10
2022-11-10T13:47:01.176Z,2.20
2022-11-10T13:49:27.402Z,2.30
2022-11-10T13:51:53.627Z,2.33
2022-11-10T13:54:38.712Z,2.43
2022-11-10T13:57:21.391Z,2.37
2022-11-10T13:59:53.084Z,2.50
2022-11-10T14:02:34.694Z,2.40
2022-11-10T14:05:01.349Z,2.60
2022-11-10T14:07:37.297Z,2.80
2022-11-10T14:10:05.542Z,2.70
2022-11-10T14:12:45.014Z,2.70
2022-11-10T14:15:19.088Z,2.80
2022-11-10T14:17:50.242Z,2.70
2022-11-10T14:20:40.130Z,2.80
2022-11-10T14:23:08.040Z,2.90
2022-11-10T14:25:39.764Z,2.90
2022-11-10T14:28:24.403Z,2.70
2022-11-10T14:30:54.798Z,3.00
2022-11-10T14:33:21.557Z,2.80
2022-11-10T14:35:52.563Z,2.90
2022-11-10T14:38:21.492Z,2.83
2022-11-10T14:40:48.290Z,2.80
2022-11-10T14:43:30.192Z,2.90
2022-11-10T14:45:56.810Z,3.00
2022-11-10T14:48:25.414Z,5.43
2022-11-10T14:50:52.427Z,3.00
2022-11-10T14:53:21.972Z,3.00
2022-11-10T14:55:54.411Z,2.90
2022-11-10T14:58:25.903Z,3.10
2022-11-10T15:00:53.008Z,3.10
2022-11-10T15:03:23.821Z,3.20
2022-11-10T15:05:50.203Z,3.30
2022-11-10T15:08:17.328Z,3.20
2022-11-10T15:10:45.693Z,3.27
2022-11-10T15:13:11.976Z,3.77
2022-11-10T15:15:38.663Z,3.40
2022-11-10T15:18:05.460Z,3.50
2022-11-10T15:20:34.093Z,3.50
2022-11-10T15:23:01.602Z,3.50
2022-11-10T15:25:32.754Z,3.40
2022-11-10T15:28:06.261Z,3.60
2022-11-10T15:30:32.818Z,3.60
2022-11-10T15:33:02.272Z,3.40
2022-11-10T15:35:30.342Z,3.50
2022-11-10T15:38:21.186Z,3.80
2022-11-10T15:40:51.750Z,3.40
2022-11-10T15:43:26.384Z,3.80
2022-11-10T15:45:54.947Z,3.70
2022-11-10T15:48:21.719Z,3.70
2022-11-10T15:50:50.042Z,3.77
2022-11-10T15:53:19.862Z,3.60
2022-11-10T15:55:46.512Z,3.80
2022-11-10T15:58:14.092Z,3.70
2022-11-10T16:00:40.481Z,3.70
2022-11-10T16:03:09.722Z,3.80
2022-11-10T16:05:39.904Z,3.90
2022-11-10T16:08:16.837Z,3.80
2022-11-10T16:10:44.491Z,4.00
2022-11-10T16:13:12.232Z,3.83
2022-11-10T16:15:39.525Z,3.80
2022-11-10T16:18:13.173Z,3.70
2022-11-10T16:20:39.610Z,4.07
2022-11-10T16:23:06.202Z,3.90
2022-11-10T16:25:33.402Z,3.90
2022-11-10T16:28:02.725Z,3.90
2022-11-10T16:30:29.759Z,4.20
2022-11-10T16:32:56.124Z,3.90
2022-11-10T16:35:22.457Z,4.00
2022-11-10T16:37:48.758Z,3.93
2022-11-10T16:40:16.374Z,3.90
2022-11-10T16:42:43.269Z,3.90
2022-11-10T16:45:16.978Z,3.90
2022-11-10T16:47:44.309Z,4.20
2022-11-10T16:50:29.180Z,4.20
2022-11-10T16:52:55.696Z,4.00
2022-11-10T16:55:22.422Z,4.10
2022-11-10T16:57:48.940Z,4.20
2022-11-10T17:00:15.705Z,4.20
2022-11-10T17:02:43.615Z,3.90
2022-11-10T17:05:15.048Z,4.00
2022-11-10T17:07:41.658Z,4.20
2022-11-10T17:10:17.951Z,4.10
2022-11-10T17:12:44.310Z,4.20
2022-11-10T17:15:15.394Z,4.23
2022-11-10T17:17:43.650Z,4.00
2022-11-10T17:20:16.978Z,4.10
2022-11-10T17:22:43.419Z,4.20
2022-11-10T17:25:13.445Z,4.30
2022-11-10T17:27:39.804Z,4.20
2022-11-10T17:30:06.382Z,4.10
2022-11-10T17:33:03.104Z,4.20
2022-11-10T17:35:19.121Z,4.00
2022-11-10T17:37:48.062Z,4.10
2022-11-10T17:40:17.432Z,4.43
2022-11-10T17:42:43.766Z,4.30
2022-11-10T17:45:17.157Z,4.40
2022-11-10T17:47:43.538Z,4.20
2022-11-10T17:50:10.042Z,4.30
2022-11-10T17:52:36.397Z,4.60
2022-11-10T17:55:02.746Z,4.30
2022-11-10T17:57:29.140Z,4.60
2022-11-10T17:59:55.667Z,4.67
2022-11-10T18:02:22.022Z,4.67
2022-11-10T18:04:48.283Z,4.30
2022-11-10T18:07:14.643Z,4.50
2022-11-10T18:09:41.054Z,4.30
2022-11-10T18:12:07.369Z,4.50
2022-11-10T18:14:34.399Z,4.50
2022-11-10T18:17:00.631Z,4.60
2022-11-10T18:19:26.925Z,4.70
2022-11-10T18:21:53.165Z,4.40
2022-11-10T18:24:19.357Z,4.50
2022-11-10T18:26:46.377Z,4.60
2022-11-10T18:29:12.604Z,4.73
2022-11-10T18:31:38.804Z,4.60
2022-11-10T18:34:05.067Z,4.70
2022-11-10T18:36:31.278Z,4.90
2022-11-10T18:38:57.524Z,4.60
2022-11-10T18:41:42.469Z,4.60
2022-11-10T18:44:08.888Z,4.60
2022-11-10T18:46:35.082Z,4.60
2022-11-10T18:49:01.322Z,4.63
2022-11-10T18:51:27.773Z,4.60
2022-11-10T18:53:54.029Z,4.63
2022-11-10T18:56:20.330Z,4.70
2022-11-10T18:58:51.174Z,4.67
2022-11-10T19:01:20.088Z,4.67
2022-11-10T19:03:46.351Z,4.70
2022-11-10T19:06:12.930Z,4.70
2022-11-10T19:08:39.804Z,5.07
2022-11-10T19:11:10.254Z,4.50
2022-11-10T19:13:36.992Z,4.70
2022-11-10T19:16:10.559Z,4.80
2022-11-10T19:18:39.272Z,5.20
2022-11-10T19:21:06.377Z,4.70
2022-11-10T19:23:32.696Z,4.57
2022-11-10T19:26:01.800Z,4.60
2022-11-10T19:28:28.566Z,4.57
2022-11-10T19:31:05.448Z,4.70
2022-11-10T19:33:32.200Z,4.63
2022-11-10T19:36:03.237Z,5.13
2022-11-10T19:38:29.935Z,4.53
2022-11-10T19:40:56.212Z,4.80
2022-11-10T19:43:22.747Z,4.80
2022-11-10T19:45:49.307Z,4.60
2022-11-10T19:48:15.555Z,4.60
2022-11-10T19:50:46.556Z,4.67
2022-11-10T19:53:16.006Z,4.70
2022-11-10T19:55:42.215Z,4.40
2022-11-10T19:58:08.449Z,4.60
2022-11-10T20:00:34.673Z,4.80
2022-11-10T20:03:00.880Z,5.00
2022-11-10T20:05:27.082Z,4.70
2022-11-10T20:08:11.608Z,4.97
2022-11-10T20:10:41.770Z,4.70
2022-11-10T20:13:08.639Z,5.07
2022-11-10T20:15:43.935Z,4.70
2022-11-10T20:18:10.956Z,4.70
2022-11-10T20:20:37.928Z,4.77
2022-11-10T20:23:05.647Z,4.70
2022-11-10T20:25:32.349Z,4.70
2022-11-10T20:27:58.946Z,4.80
2022-11-10T20:30:25.175Z,4.70
2022-11-10T20:32:51.496Z,4.70
2022-11-10T20:35:17.759Z,4.63
2022-11-10T20:37:44.061Z,9.03
2022-11-10T20:40:42.484Z,4.80
2022-11-10T20:42:59.184Z,4.63
2022-11-10T20:45:25.405Z,4.80
2022-11-10T20:47:51.716Z,4.90
2022-11-10T20:50:21.795Z,4.60
2022-11-10T20:52:50.529Z,4.80
2022-11-10T20:55:18.412Z,4.83
2022-11-10T20:57:45.114Z,4.80
2022-11-10T21:00:11.568Z,4.90
2022-11-10T21:02:37.993Z,4.60
2022-11-10T21:05:04.431Z,4.60
2022-11-10T21:07:30.653Z,4.80
2022-11-10T21:09:56.848Z,5.20
2022-11-10T21:12:41.897Z,4.70
2022-11-10T21:15:08.282Z,4.80
2022-11-10T21:17:34.545Z,4.70
2022-11-10T21:20:00.740Z,4.83
2022-11-10T21:22:27.010Z,4.60
2022-11-10T21:24:53.254Z,4.80
2022-11-10T21:27:19.552Z,4.70
2022-11-10T21:29:46.336Z,4.60
2022-11-10T21:32:12.574Z,4.83
2022-11-10T21:34:38.861Z,4.80
2022-11-10T21:37:05.109Z,4.80
2022-11-10T21:39:31.318Z,4.67
2022-11-10T21:41:57.604Z,4.63
2022-11-10T21:44:24.663Z,4.83
2022-11-10T21:46:51.027Z,4.77
2022-11-10T21:49:17.334Z,5.40
2022-11-10T21:51:43.558Z,4.80
2022-11-10T21:54:10.443Z,5.10
2022-11-10T21:56:36.661Z,4.73
2022-11-10T21:59:02.881Z,4.80
2022-11-10T22:01:29.160Z,4.90
2022-11-10T22:03:55.489Z,4.90
2022-11-10T22:06:21.992Z,5.20
2022-11-10T22:08:48.455Z,5.00
2022-11-10T22:11:34.229Z,4.80
2022-11-10T22:14:19.546Z,4.80
2022-11-10T22:17:04.156Z,5.97
2022-11-10T22:19:31.028Z,4.90
2022-11-10T22:22:00.896Z,5.00
2022-11-10T22:24:29.620Z,4.80
2022-11-10T22:26:57.161Z,4.90
2022-11-10T22:29:28.667Z,6.90
2022-11-10T22:31:57.779Z,5.00
2022-11-10T22:34:24.055Z,5.00
2022-11-10T22:36:50.381Z,5.60
2022-11-10T22:39:17.546Z,4.93
2022-11-10T22:42:02.447Z,5.07
2022-11-10T22:44:28.902Z,5.00
2022-11-10T22:46:55.155Z,4.97
2022-11-10T22:49:22.274Z,4.83
2022-11-10T22:51:49.753Z,4.90
2022-11-10T22:54:17.256Z,5.00
2022-11-10T22:56:43.635Z,4.90
2022-11-10T22:59:10.247Z,5.10
2022-11-10T23:01:37.304Z,6.27
2022-11-10T23:04:03.904Z,5.10
2022-11-10T23:06:30.372Z,5.30
2022-11-10T23:08:57.098Z,5.10
2022-11-10T23:11:24.949Z,5.00
2022-11-10T23:13:51.557Z,4.93
2022-11-10T23:16:26.861Z,5.03
2022-11-10T23:18:53.926Z,5.10
2022-11-10T23:21:21.010Z,5.10
2022-11-10T23:23:47.939Z,4.80
2022-11-10T23:26:21.641Z,5.20
2022-11-10T23:28:47.873Z,5.27
2022-11-10T23:31:15.535Z,4.90
2022-11-10T23:33:43.023Z,5.20
2022-11-10T23:36:10.469Z,5.17
2022-11-10T23:38:37.161Z,5.30
2022-11-10T23:41:04.540Z,5.00
2022-11-10T23:43:30.854Z,14.43
2022-11-10T23:46:12.627Z,5.00
2022-11-10T23:48:39.445Z,5.00
2022-11-10T23:51:06.225Z,5.07
2022-11-10T23:53:32.801Z,4.90
2022-11-10T23:56:00.596Z,5.13
2022-11-10T23:58:27.285Z,5.10
